Kress, Texas
Current Conditions -  °F | °C
As of 12:15 AM on Thursday 29 Jan 2015 (Local Time) from KPVW Reporting Station
Clear Clear  
Wind Chill: 41°   Ceiling: Unl
Heat Index: 41°   Visibility: 10mi
Dew Point: 33°   Wind: 3mph
Humidity: 75%   Direction: 260°W
Pressure: 30.15"   Gusts: NA
Location:  34.37°N, 101.75°W
Report Text: KPVW 290615Z AUTO 26003KT 10SM CLR 05/01 A3015 RMK AO2 T00480008
Loading
Personal Weather Stations






























Interactive Weather Map New forecast layout! Learn more

10-Day Weather Forecast

Advertisements
Track Severe Weather on mobile